African Hhb — D5DI8 — position and weather

sailwx.info

Track history (hours):
 
Tides and Currents Weather Stations Pressure Air Temp Water Temp Dewpoint Dewpoint Depression Visibility Wind Speed Wind Dir Waves Ship Positions

African Hhb

Last reported at 2018-Jul-16 04:30 UTC. Time now 2018-Jul-16 04:48 UTC.
Position N 27°43' W 015°14'.

Length 175 m; draft 8.9 m.

Type: Cargo ship. MMSI: 636015891.

Date/timePositionNaut miles runAvg speedWind from/ knotsBaromVisibWave heightAir tempDewpointWater temp
2018-Jul-16 04:30N 27°43' W 015°14'713.6
2018-Jul-16 04:00N 27°50' W 015°14'713.9
2018-Jul-16 03:31N 27°57' W 015°14'712.9
2018-Jul-16 03:00N 28°03' W 015°18'611.6
2018-Jul-16 02:31N 28°06' W 015°23'2 2.6
2018-Jul-16 01:56N 28°06' W 015°24'0 0.1
2018-Jul-16 01:26N 28°06' W 015°24'0 0.0
2018-Jul-16 00:56N 28°06' W 015°24'0 0.0
2018-Jul-16 00:26N 28°06' W 015°24'0 0.0
2018-Jul-15 23:59N 28°06' W 015°24'0 0.0
2018-Jul-15 23:29N 28°06' W 015°24'0 0.0
2018-Jul-15 22:59N 28°06' W 015°24'0 0.0
2018-Jul-15 22:29N 28°06' W 015°24'0 0.0
2018-Jul-15 21:59N 28°06' W 015°24'0 0.0
2018-Jul-15 21:29N 28°06' W 015°24'0 0.0
2018-Jul-15 20:44N 28°06' W 015°24'0 0.1
2018-Jul-15 20:29N 28°06' W 015°24'0 0.0
2018-Jul-15 19:59N 28°06' W 015°24'0 0.0
2018-Jul-15 19:29N 28°06' W 015°24'0 0.0
2018-Jul-15 18:59N 28°06' W 015°24'0 0.0
2018-Jul-15 18:29N 28°06' W 015°24'0 0.0
2018-Jul-15 17:50N 28°06' W 015°24'0 0.0
2018-Jul-15 17:20N 28°06' W 015°24'0 0.0
2018-Jul-15 16:50N 28°06' W 015°24'0 0.0
2018-Jul-15 16:23N 28°06' W 015°24'0 0.0
2018-Jul-15 15:50N 28°06' W 015°24'0 0.0
2018-Jul-15 15:23N 28°06' W 015°24'0 0.8
2018-Jul-15 15:00N 28°07' W 015°24'2 3.3
2018-Jul-15 14:31N 28°07' W 015°22'4 7.6
2018-Jul-15 14:01N 28°09' W 015°19'612.8
2018-Jul-15 13:31N 28°16' W 015°17'713.5
2018-Jul-15 13:00N 28°22' W 015°15'713.7
2018-Jul-15 12:30N 28°29' W 015°13'713.8
2018-Jul-15 12:00N 28°35' W 015°11'713.6
2018-Jul-15 11:30N 28°42' W 015°09'713.4
2018-Jul-15 10:59N 28°49' W 015°07'713.5
2018-Jul-15 10:28N 28°56' W 015°05'  
2018-Jul-11 07:54N 49°24' W 004°29'614.2
2018-Jul-11 07:30N 49°27' W 004°21'714.1
2018-Jul-11 07:00N 49°31' W 004°12'713.5
2018-Jul-11 06:30N 49°34' W 004°03'813.1
2018-Jul-11 05:52N 49°38' W 003°52'512.7
2018-Jul-11 05:28N 49°41' W 003°45'612.5
2018-Jul-11 05:00N 49°44' W 003°38'612.2
2018-Jul-11 04:30N 49°47' W 003°29'612.3
2018-Jul-11 04:00N 49°50' W 003°21'612.5
2018-Jul-11 03:30N 49°53' W 003°13'612.9
2018-Jul-11 03:00N 49°56' W 003°04'713.3
2018-Jul-11 02:30N 49°59' W 002°55'714.2
2018-Jul-11 02:00N 50°01' W 002°44'714.6
2018-Jul-11 01:30N 50°03' W 002°33'1815.7
2018-Jul-11 00:22N 50°08' W 002°06'616.6
2018-Jul-11 00:00N 50°09' W 001°57'1116.7
2018-Jul-10 23:22N 50°12' W 001°41'2616.0
2018-Jul-10 21:46N 50°19' W 001°03'714.5
2018-Jul-10 21:19N 50°21' W 000°53'2113.0
2018-Jul-10 19:40N 50°27' W 000°20'312.0
2018-Jul-10 19:27N 50°27' W 000°17'1211.8
2018-Jul-10 18:29N 50°30' E 000°01'1111.8
2018-Jul-10 17:35N 50°33' E 000°17'112.4
2018-Jul-10 17:30N 50°33' E 000°18'712.9
2018-Jul-10 17:00N 50°35' E 000°28'713.5
2018-Jul-10 16:30N 50°39' E 000°37'714.3
2018-Jul-10 16:00N 50°42' E 000°47'815.0
2018-Jul-10 15:30N 50°47' E 000°57'815.4
2018-Jul-10 15:00N 50°51' E 001°07'815.5
2018-Jul-10 14:30N 50°55' E 001°17'815.6
2018-Jul-10 14:00N 51°00' E 001°26'714.8
2018-Jul-10 13:30N 51°06' E 001°34'714.1
2018-Jul-10 13:01N 51°11' E 001°42'713.0
2018-Jul-10 12:30N 51°16' E 001°48'612.5
2018-Jul-10 12:01N 51°22' E 001°53'612.3
2018-Jul-10 11:31N 51°27' E 001°58'612.0
2018-Jul-10 11:01N 51°31' E 002°04'612.0
2018-Jul-10 10:31N 51°36' E 002°10'611.9
2018-Jul-10 09:59N 51°41' E 002°16'612.3
2018-Jul-10 09:28N 51°46' E 002°23'42412.0
2018-Jul-08 22:08N 57°38' E 009°11'211.7
2018-Jul-08 22:00N 57°39' E 009°13'611.8
2018-Jul-08 21:30N 57°43' E 009°22'612.1
2018-Jul-08 20:59N 57°46' E 009°31'611.7
2018-Jul-08 20:30N 57°49' E 009°41'611.7
2018-Jul-08 20:00N 57°49' E 009°52'611.7
2018-Jul-08 19:30N 57°49' E 010°03'611.9
2018-Jul-08 19:00N 57°50' E 010°14'611.6
2018-Jul-08 18:31N 57°49' E 010°25'611.8
2018-Jul-08 18:00N 57°49' E 010°36'612.2
2018-Jul-08 17:31N 57°48' E 010°47'612.7
2018-Jul-08 17:00N 57°44' E 010°56'612.7
2018-Jul-08 16:30N 57°40' E 011°05'713.1
2018-Jul-08 16:00N 57°35' E 011°14'612.4
2018-Jul-08 15:30N 57°31' E 011°22'612.1
2018-Jul-08 15:00N 57°26' E 011°28'713.2
2018-Jul-08 14:30N 57°19' E 011°32'713.2
2018-Jul-08 14:01N 57°13' E 011°36'612.8
2018-Jul-08 13:30N 57°07' E 011°40'612.6
2018-Jul-08 13:00N 57°01' E 011°44'713.0
2018-Jul-08 12:31N 56°55' E 011°48'712.9
2018-Jul-08 12:00N 56°49' E 011°52'611.3
2018-Jul-08 11:30N 56°43' E 011°51'713.5
2018-Jul-08 11:00N 56°37' E 011°46'713.6
2018-Jul-08 10:31N 56°31' E 011°39'713.5
2018-Jul-08 09:59N 56°25' E 011°33'6911.2
2018-Jul-08 03:50N 55°19' E 011°03'411.9
2018-Jul-08 03:30N 55°15' E 011°05'511.0
2018-Jul-08 03:00N 55°10' E 011°03'611.6
2018-Jul-08 02:30N 55°04' E 011°02'611.6
2018-Jul-08 02:00N 54°58' E 010°60'611.4
2018-Jul-08 01:30N 54°54' E 010°54'511.0
2018-Jul-08 01:00N 54°49' E 010°53'611.2
2018-Jul-08 00:30N 54°43' E 010°53'611.2
2018-Jul-08 00:01N 54°39' E 011°01'612.5
2018-Jul-07 23:30N 54°36' E 011°10'611.3
2018-Jul-07 23:01N 54°34' E 011°19'611.2
2018-Jul-07 22:30N 54°31' E 011°27'611.1
2018-Jul-07 22:00N 54°29' E 011°36'611.5
2018-Jul-07 21:31N 54°27' E 011°45'1511.7
2018-Jul-07 20:16N 54°26' E 012°10'312.7
2018-Jul-07 20:00N 54°29' E 012°13'612.9
2018-Jul-07 19:31N 54°36' E 012°15'611.6
2018-Jul-07 19:01N 54°39' E 012°22'7212.6
2018-Jul-07 13:19N 55°12' E 014°14'512.5
2018-Jul-07 12:57N 55°15' E 014°19'612.8
2018-Jul-07 12:30N 55°20' E 014°26'612.6
2018-Jul-07 12:00N 55°25' E 014°32'1012.4
2018-Jul-07 11:11N 55°30' E 014°47'412.7
2018-Jul-07 10:52N 55°32' E 014°53'512.9
2018-Jul-07 10:30N 55°34' E 015°01'613.1
2018-Jul-07 10:00N 55°37' E 015°12'713.2
2018-Jul-07 09:31N 55°39' E 015°22'713.2
2018-Jul-07 09:01N 55°41' E 015°34'613.0
2018-Jul-07 08:31N 55°42' E 015°45'613.0
2018-Jul-07 08:00N 55°44' E 015°56'613.0
2018-Jul-07 07:30N 55°46' E 016°07'713.2
2018-Jul-07 07:01N 55°47' E 016°18'713.1
2018-Jul-07 06:30N 55°49' E 016°30'713.1
2018-Jul-07 06:01N 55°50' E 016°41'713.0
2018-Jul-07 05:30N 55°52' E 016°52'713.1
2018-Jul-07 05:00N 55°54' E 017°04'713.1
2018-Jul-07 04:30N 55°55' E 017°15'613.2
2018-Jul-07 04:01N 55°57' E 017°26'713.4
2018-Jul-07 03:31N 55°59' E 017°38'713.6
2018-Jul-07 03:01N 56°00' E 017°50'713.6
2018-Jul-07 02:30N 56°02' E 018°01'713.5
2018-Jul-07 02:00N 56°04' E 018°13'813.6
2018-Jul-07 01:26N 56°07' E 018°26'613.7
2018-Jul-07 01:00N 56°08' E 018°37'713.8
2018-Jul-07 00:29N 56°10' E 018°49'  
Track history (hours):
 
Tides and Currents Weather Stations Pressure Air Temp Water Temp Dewpoint Dewpoint Depression Visibility Wind Speed Wind Dir Waves Ship Positions

African Hhb

Last reported at 2018-Jul-16 04:30 UTC. Time now 2018-Jul-16 04:48 UTC.
Position N 27°43' W 015°14'.

Length 175 m; draft 8.9 m.

Type: Cargo ship. MMSI: 636015891.

Date/timePositionNaut miles runAvg speedWind from/ knotsBaromVisibWave heightAir tempDewpointWater temp
2018-Jul-16 04:30N 27°43' W 015°14'713.6
2018-Jul-16 04:00N 27°50' W 015°14'713.9
2018-Jul-16 03:31N 27°57' W 015°14'712.9
2018-Jul-16 03:00N 28°03' W 015°18'611.6
2018-Jul-16 02:31N 28°06' W 015°23'2 2.6
2018-Jul-16 01:56N 28°06' W 015°24'0 0.1
2018-Jul-16 01:26N 28°06' W 015°24'0 0.0
2018-Jul-16 00:56N 28°06' W 015°24'0 0.0
2018-Jul-16 00:26N 28°06' W 015°24'0 0.0
2018-Jul-15 23:59N 28°06' W 015°24'0 0.0
2018-Jul-15 23:29N 28°06' W 015°24'0 0.0
2018-Jul-15 22:59N 28°06' W 015°24'0 0.0
2018-Jul-15 22:29N 28°06' W 015°24'0 0.0
2018-Jul-15 21:59N 28°06' W 015°24'0 0.0
2018-Jul-15 21:29N 28°06' W 015°24'0 0.0
2018-Jul-15 20:44N 28°06' W 015°24'0 0.1
2018-Jul-15 20:29N 28°06' W 015°24'0 0.0
2018-Jul-15 19:59N 28°06' W 015°24'0 0.0
2018-Jul-15 19:29N 28°06' W 015°24'0 0.0
2018-Jul-15 18:59N 28°06' W 015°24'0 0.0
2018-Jul-15 18:29N 28°06' W 015°24'0 0.0
2018-Jul-15 17:50N 28°06' W 015°24'0 0.0
2018-Jul-15 17:20N 28°06' W 015°24'0 0.0
2018-Jul-15 16:50N 28°06' W 015°24'0 0.0
2018-Jul-15 16:23N 28°06' W 015°24'0 0.0
2018-Jul-15 15:50N 28°06' W 015°24'0 0.0
2018-Jul-15 15:23N 28°06' W 015°24'0 0.8
2018-Jul-15 15:00N 28°07' W 015°24'2 3.3
2018-Jul-15 14:31N 28°07' W 015°22'4 7.6
2018-Jul-15 14:01N 28°09' W 015°19'612.8
2018-Jul-15 13:31N 28°16' W 015°17'713.5
2018-Jul-15 13:00N 28°22' W 015°15'713.7
2018-Jul-15 12:30N 28°29' W 015°13'713.8
2018-Jul-15 12:00N 28°35' W 015°11'713.6
2018-Jul-15 11:30N 28°42' W 015°09'713.4
2018-Jul-15 10:59N 28°49' W 015°07'713.5
2018-Jul-15 10:28N 28°56' W 015°05'  
2018-Jul-11 07:54N 49°24' W 004°29'614.2
2018-Jul-11 07:30N 49°27' W 004°21'714.1
2018-Jul-11 07:00N 49°31' W 004°12'713.5
2018-Jul-11 06:30N 49°34' W 004°03'813.1
2018-Jul-11 05:52N 49°38' W 003°52'512.7
2018-Jul-11 05:28N 49°41' W 003°45'612.5
2018-Jul-11 05:00N 49°44' W 003°38'612.2
2018-Jul-11 04:30N 49°47' W 003°29'612.3
2018-Jul-11 04:00N 49°50' W 003°21'612.5
2018-Jul-11 03:30N 49°53' W 003°13'612.9
2018-Jul-11 03:00N 49°56' W 003°04'713.3
2018-Jul-11 02:30N 49°59' W 002°55'714.2
2018-Jul-11 02:00N 50°01' W 002°44'714.6
2018-Jul-11 01:30N 50°03' W 002°33'1815.7
2018-Jul-11 00:22N 50°08' W 002°06'616.6
2018-Jul-11 00:00N 50°09' W 001°57'1116.7
2018-Jul-10 23:22N 50°12' W 001°41'2616.0
2018-Jul-10 21:46N 50°19' W 001°03'714.5
2018-Jul-10 21:19N 50°21' W 000°53'2113.0
2018-Jul-10 19:40N 50°27' W 000°20'312.0
2018-Jul-10 19:27N 50°27' W 000°17'1211.8
2018-Jul-10 18:29N 50°30' E 000°01'1111.8
2018-Jul-10 17:35N 50°33' E 000°17'112.4
2018-Jul-10 17:30N 50°33' E 000°18'712.9
2018-Jul-10 17:00N 50°35' E 000°28'713.5
2018-Jul-10 16:30N 50°39' E 000°37'714.3
2018-Jul-10 16:00N 50°42' E 000°47'815.0
2018-Jul-10 15:30N 50°47' E 000°57'815.4
2018-Jul-10 15:00N 50°51' E 001°07'815.5
2018-Jul-10 14:30N 50°55' E 001°17'815.6
2018-Jul-10 14:00N 51°00' E 001°26'714.8
2018-Jul-10 13:30N 51°06' E 001°34'714.1
2018-Jul-10 13:01N 51°11' E 001°42'713.0
2018-Jul-10 12:30N 51°16' E 001°48'612.5
2018-Jul-10 12:01N 51°22' E 001°53'612.3
2018-Jul-10 11:31N 51°27' E 001°58'612.0
2018-Jul-10 11:01N 51°31' E 002°04'612.0
2018-Jul-10 10:31N 51°36' E 002°10'611.9
2018-Jul-10 09:59N 51°41' E 002°16'612.3
2018-Jul-10 09:28N 51°46' E 002°23'42412.0
2018-Jul-08 22:08N 57°38' E 009°11'211.7
2018-Jul-08 22:00N 57°39' E 009°13'611.8
2018-Jul-08 21:30N 57°43' E 009°22'612.1
2018-Jul-08 20:59N 57°46' E 009°31'611.7
2018-Jul-08 20:30N 57°49' E 009°41'611.7
2018-Jul-08 20:00N 57°49' E 009°52'611.7
2018-Jul-08 19:30N 57°49' E 010°03'611.9
2018-Jul-08 19:00N 57°50' E 010°14'611.6
2018-Jul-08 18:31N 57°49' E 010°25'611.8
2018-Jul-08 18:00N 57°49' E 010°36'612.2
2018-Jul-08 17:31N 57°48' E 010°47'612.7
2018-Jul-08 17:00N 57°44' E 010°56'612.7
2018-Jul-08 16:30N 57°40' E 011°05'713.1
2018-Jul-08 16:00N 57°35' E 011°14'612.4
2018-Jul-08 15:30N 57°31' E 011°22'612.1
2018-Jul-08 15:00N 57°26' E 011°28'713.2
2018-Jul-08 14:30N 57°19' E 011°32'713.2
2018-Jul-08 14:01N 57°13' E 011°36'612.8
2018-Jul-08 13:30N 57°07' E 011°40'612.6
2018-Jul-08 13:00N 57°01' E 011°44'713.0
2018-Jul-08 12:31N 56°55' E 011°48'712.9
2018-Jul-08 12:00N 56°49' E 011°52'611.3
2018-Jul-08 11:30N 56°43' E 011°51'713.5
2018-Jul-08 11:00N 56°37' E 011°46'713.6
2018-Jul-08 10:31N 56°31' E 011°39'713.5
2018-Jul-08 09:59N 56°25' E 011°33'6911.2
2018-Jul-08 03:50N 55°19' E 011°03'411.9
2018-Jul-08 03:30N 55°15' E 011°05'511.0
2018-Jul-08 03:00N 55°10' E 011°03'611.6
2018-Jul-08 02:30N 55°04' E 011°02'611.6
2018-Jul-08 02:00N 54°58' E 010°60'611.4
2018-Jul-08 01:30N 54°54' E 010°54'511.0
2018-Jul-08 01:00N 54°49' E 010°53'611.2
2018-Jul-08 00:30N 54°43' E 010°53'611.2
2018-Jul-08 00:01N 54°39' E 011°01'612.5
2018-Jul-07 23:30N 54°36' E 011°10'611.3
2018-Jul-07 23:01N 54°34' E 011°19'611.2
2018-Jul-07 22:30N 54°31' E 011°27'611.1
2018-Jul-07 22:00N 54°29' E 011°36'611.5
2018-Jul-07 21:31N 54°27' E 011°45'1511.7
2018-Jul-07 20:16N 54°26' E 012°10'312.7
2018-Jul-07 20:00N 54°29' E 012°13'612.9
2018-Jul-07 19:31N 54°36' E 012°15'611.6
2018-Jul-07 19:01N 54°39' E 012°22'7212.6
2018-Jul-07 13:19N 55°12' E 014°14'512.5
2018-Jul-07 12:57N 55°15' E 014°19'612.8
2018-Jul-07 12:30N 55°20' E 014°26'612.6
2018-Jul-07 12:00N 55°25' E 014°32'1012.4
2018-Jul-07 11:11N 55°30' E 014°47'412.7
2018-Jul-07 10:52N 55°32' E 014°53'512.9
2018-Jul-07 10:30N 55°34' E 015°01'613.1
2018-Jul-07 10:00N 55°37' E 015°12'713.2
2018-Jul-07 09:31N 55°39' E 015°22'713.2
2018-Jul-07 09:01N 55°41' E 015°34'613.0
2018-Jul-07 08:31N 55°42' E 015°45'613.0
2018-Jul-07 08:00N 55°44' E 015°56'613.0
2018-Jul-07 07:30N 55°46' E 016°07'713.2
2018-Jul-07 07:01N 55°47' E 016°18'713.1
2018-Jul-07 06:30N 55°49' E 016°30'713.1
2018-Jul-07 06:01N 55°50' E 016°41'713.0
2018-Jul-07 05:30N 55°52' E 016°52'713.1
2018-Jul-07 05:00N 55°54' E 017°04'713.1
2018-Jul-07 04:30N 55°55' E 017°15'613.2
2018-Jul-07 04:01N 55°57' E 017°26'713.4
2018-Jul-07 03:31N 55°59' E 017°38'713.6
2018-Jul-07 03:01N 56°00' E 017°50'713.6
2018-Jul-07 02:30N 56°02' E 018°01'713.5
2018-Jul-07 02:00N 56°04' E 018°13'813.6
2018-Jul-07 01:26N 56°07' E 018°26'613.7
2018-Jul-07 01:00N 56°08' E 018°37'713.8
2018-Jul-07 00:29N 56°10' E 018°49'  

Dump ship's entire track history